sensor_id;sensor_type;location;lat;lon;timestamp;pressure;altitude;pressure_sealevel;temperature;humidity
27334;BME280;14817;57.104;-2.094;2024-02-26T00:01:14;99511.00;;;1.72;100.00
27334;BME280;14817;57.104;-2.094;2024-02-26T00:03:41;99508.72;;;1.78;100.00
27334;BME280;14817;57.104;-2.094;2024-02-26T00:06:09;99506.78;;;1.80;100.00
27334;BME280;14817;57.104;-2.094;2024-02-26T00:08:36;99511.44;;;1.77;100.00
27334;BME280;14817;57.104;-2.094;2024-02-26T00:11:03;99521.44;;;1.73;100.00
27334;BME280;14817;57.104;-2.094;2024-02-26T00:13:30;99528.16;;;1.77;100.00
27334;BME280;14817;57.104;-2.094;2024-02-26T00:15:57;99525.88;;;1.84;100.00
27334;BME280;14817;57.104;-2.094;2024-02-26T00:18:24;99529.59;;;1.81;100.00
27334;BME280;14817;57.104;-2.094;2024-02-26T00:20:51;99532.81;;;1.85;100.00
27334;BME280;14817;57.104;-2.094;2024-02-26T00:23:18;99535.81;;;1.80;100.00
27334;BME280;14817;57.104;-2.094;2024-02-26T00:25:44;99523.81;;;1.88;100.00
27334;BME280;14817;57.104;-2.094;2024-02-26T00:28:11;99528.03;;;1.90;100.00
27334;BME280;14817;57.104;-2.094;2024-02-26T00:30:40;99523.09;;;1.97;100.00
27334;BME280;14817;57.104;-2.094;2024-02-26T00:33:06;99523.44;;;2.03;100.00
27334;BME280;14817;57.104;-2.094;2024-02-26T00:35:33;99524.03;;;2.07;100.00
27334;BME280;14817;57.104;-2.094;2024-02-26T00:38:00;99529.91;;;2.11;100.00
27334;BME280;14817;57.104;-2.094;2024-02-26T00:40:28;99528.94;;;2.12;100.00
27334;BME280;14817;57.104;-2.094;2024-02-26T00:42:55;99532.09;;;2.06;100.00
27334;BME280;14817;57.104;-2.094;2024-02-26T00:45:22;99540.22;;;2.14;100.00
27334;BME280;14817;57.104;-2.094;2024-02-26T00:47:49;99537.81;;;2.22;100.00
27334;BME280;14817;57.104;-2.094;2024-02-26T00:50:19;99551.53;;;2.16;100.00
27334;BME280;14817;57.104;-2.094;2024-02-26T00:52:45;99549.84;;;2.03;100.00
27334;BME280;14817;57.104;-2.094;2024-02-26T00:55:13;99565.56;;;1.94;100.00
27334;BME280;14817;57.104;-2.094;2024-02-26T00:57:40;99566.03;;;1.88;100.00
27334;BME280;14817;57.104;-2.094;2024-02-26T01:00:07;99570.59;;;1.86;100.00
27334;BME280;14817;57.104;-2.094;2024-02-26T01:02:37;99574.81;;;1.88;100.00
27334;BME280;14817;57.104;-2.094;2024-02-26T01:05:06;99582.38;;;1.93;100.00
27334;BME280;14817;57.104;-2.094;2024-02-26T01:07:33;99580.56;;;1.93;100.00
27334;BME280;14817;57.104;-2.094;2024-02-26T01:10:03;99593.16;;;1.67;100.00
27334;BME280;14817;57.104;-2.094;2024-02-26T01:12:30;99594.84;;;1.57;100.00
27334;BME280;14817;57.104;-2.094;2024-02-26T01:14:57;99600.09;;;1.46;100.00
27334;BME280;14817;57.104;-2.094;2024-02-26T01:17:24;99608.28;;;1.54;100.00
27334;BME280;14817;57.104;-2.094;2024-02-26T01:19:52;99606.31;;;1.45;100.00
27334;BME280;14817;57.104;-2.094;2024-02-26T01:22:20;99612.44;;;1.45;100.00
27334;BME280;14817;57.104;-2.094;2024-02-26T01:24:47;99607.56;;;1.52;100.00
27334;BME280;14817;57.104;-2.094;2024-02-26T01:27:14;99617.84;;;1.55;100.00
27334;BME280;14817;57.104;-2.094;2024-02-26T01:29:42;99613.78;;;1.62;100.00
27334;BME280;14817;57.104;-2.094;2024-02-26T01:32:09;99625.78;;;1.66;100.00
27334;BME280;14817;57.104;-2.094;2024-02-26T01:34:36;99625.56;;;1.69;100.00
27334;BME280;14817;57.104;-2.094;2024-02-26T01:37:06;99628.94;;;1.71;100.00
27334;BME280;14817;57.104;-2.094;2024-02-26T01:39:33;99626.75;;;1.76;100.00
27334;BME280;14817;57.104;-2.094;2024-02-26T01:42:01;99627.59;;;1.77;100.00
27334;BME280;14817;57.104;-2.094;2024-02-26T01:44:27;99627.84;;;1.85;100.00
27334;BME280;14817;57.104;-2.094;2024-02-26T01:46:55;99632.53;;;1.93;100.00
27334;BME280;14817;57.104;-2.094;2024-02-26T01:49:22;99628.34;;;2.01;100.00
27334;BME280;14817;57.104;-2.094;2024-02-26T01:51:49;99639.84;;;2.00;100.00
27334;BME280;14817;57.104;-2.094;2024-02-26T01:54:17;99635.91;;;1.95;100.00
27334;BME280;14817;57.104;-2.094;2024-02-26T01:56:44;99641.19;;;1.95;100.00
27334;BME280;14817;57.104;-2.094;2024-02-26T01:59:11;99648.13;;;1.84;100.00
27334;BME280;14817;57.104;-2.094;2024-02-26T02:01:39;99649.69;;;1.87;100.00
27334;BME280;14817;57.104;-2.094;2024-02-26T02:04:11;99654.50;;;1.93;100.00
27334;BME280;14817;57.104;-2.094;2024-02-26T02:06:38;99653.41;;;1.96;100.00
27334;BME280;14817;57.104;-2.094;2024-02-26T02:09:05;99650.09;;;2.05;100.00
27334;BME280;14817;57.104;-2.094;2024-02-26T02:11:34;99655.84;;;2.10;100.00
27334;BME280;14817;57.104;-2.094;2024-02-26T02:14:01;99655.72;;;2.23;100.00
27334;BME280;14817;57.104;-2.094;2024-02-26T02:16:28;99658.00;;;2.28;100.00
27334;BME280;14817;57.104;-2.094;2024-02-26T02:18:55;99670.34;;;2.38;100.00
27334;BME280;14817;57.104;-2.094;2024-02-26T02:21:22;99676.59;;;2.49;100.00
27334;BME280;14817;57.104;-2.094;2024-02-26T02:23:48;99678.88;;;2.53;100.00
27334;BME280;14817;57.104;-2.094;2024-02-26T02:26:16;99689.22;;;2.56;100.00
27334;BME280;14817;57.104;-2.094;2024-02-26T02:28:44;99686.78;;;2.64;100.00
27334;BME280;14817;57.104;-2.094;2024-02-26T02:31:12;99692.06;;;2.76;100.00
27334;BME280;14817;57.104;-2.094;2024-02-26T02:33:39;99700.72;;;2.78;100.00
27334;BME280;14817;57.104;-2.094;2024-02-26T02:36:06;99700.47;;;2.81;100.00
27334;BME280;14817;57.104;-2.094;2024-02-26T02:38:37;99698.19;;;2.76;100.00
27334;BME280;14817;57.104;-2.094;2024-02-26T02:41:04;99695.53;;;2.76;100.00
27334;BME280;14817;57.104;-2.094;2024-02-26T02:43:31;99700.13;;;2.74;100.00
27334;BME280;14817;57.104;-2.094;2024-02-26T02:45:58;99700.38;;;2.71;100.00
27334;BME280;14817;57.104;-2.094;2024-02-26T02:48:25;99701.91;;;2.74;100.00
27334;BME280;14817;57.104;-2.094;2024-02-26T02:50:52;99702.75;;;2.74;100.00
27334;BME280;14817;57.104;-2.094;2024-02-26T02:53:19;99708.66;;;2.78;100.00
27334;BME280;14817;57.104;-2.094;2024-02-26T02:55:46;99710.31;;;2.79;100.00
27334;BME280;14817;57.104;-2.094;2024-02-26T02:58:13;99715.13;;;2.85;100.00
27334;BME280;14817;57.104;-2.094;2024-02-26T03:00:39;99723.50;;;2.90;100.00
27334;BME280;14817;57.104;-2.094;2024-02-26T03:03:07;99723.50;;;2.90;100.00
27334;BME280;14817;57.104;-2.094;2024-02-26T03:05:33;99732.91;;;2.83;100.00
27334;BME280;14817;57.104;-2.094;2024-02-26T03:08:00;99732.69;;;2.86;100.00
27334;BME280;14817;57.104;-2.094;2024-02-26T03:10:27;99720.06;;;2.78;100.00
27334;BME280;14817;57.104;-2.094;2024-02-26T03:12:54;99732.09;;;2.71;100.00
27334;BME280;14817;57.104;-2.094;2024-02-26T03:15:22;99726.44;;;2.64;100.00
27334;BME280;14817;57.104;-2.094;2024-02-26T03:17:49;99733.16;;;2.57;100.00
27334;BME280;14817;57.104;-2.094;2024-02-26T03:20:17;99725.25;;;2.57;100.00
27334;BME280;14817;57.104;-2.094;2024-02-26T03:22:45;99740.88;;;2.60;100.00
27334;BME280;14817;57.104;-2.094;2024-02-26T03:25:12;99732.09;;;2.60;100.00
27334;BME280;14817;57.104;-2.094;2024-02-26T03:27:39;99732.09;;;2.60;100.00
27334;BME280;14817;57.104;-2.094;2024-02-26T03:30:06;99744.84;;;2.55;100.00
27334;BME280;14817;57.104;-2.094;2024-02-26T03:32:33;99747.38;;;2.56;100.00
27334;BME280;14817;57.104;-2.094;2024-02-26T03:35:00;99749.88;;;2.58;100.00
27334;BME280;14817;57.104;-2.094;2024-02-26T03:37:27;99760.56;;;2.56;100.00
27334;BME280;14817;57.104;-2.094;2024-02-26T03:39:54;99760.69;;;2.55;100.00
27334;BME280;14817;57.104;-2.094;2024-02-26T03:42:21;99765.13;;;2.54;100.00
27334;BME280;14817;57.104;-2.094;2024-02-26T03:44:48;99771.97;;;2.57;100.00
27334;BME280;14817;57.104;-2.094;2024-02-26T03:47:16;99759.38;;;2.60;100.00
27334;BME280;14817;57.104;-2.094;2024-02-26T03:49:43;99771.88;;;2.58;100.00
27334;BME280;14817;57.104;-2.094;2024-02-26T03:52:10;99771.72;;;2.60;100.00
27334;BME280;14817;57.104;-2.094;2024-02-26T03:54:36;99781.25;;;2.62;100.00
27334;BME280;14817;57.104;-2.094;2024-02-26T03:57:03;99779.44;;;2.63;100.00
27334;BME280;14817;57.104;-2.094;2024-02-26T03:59:31;99793.13;;;2.68;100.00
27334;BME280;14817;57.104;-2.094;2024-02-26T04:01:57;99794.22;;;2.65;100.00
27334;BME280;14817;57.104;-2.094;2024-02-26T04:04:24;99797.78;;;2.64;100.00
27334;BME280;14817;57.104;-2.094;2024-02-26T04:06:51;99809.47;;;2.73;100.00
27334;BME280;14817;57.104;-2.094;2024-02-26T04:09:18;99811.41;;;2.71;100.00
27334;BME280;14817;57.104;-2.094;2024-02-26T04:11:45;99822.81;;;2.60;100.00
27334;BME280;14817;57.104;-2.094;2024-02-26T04:14:12;99825.31;;;2.62;100.00
27334;BME280;14817;57.104;-2.094;2024-02-26T04:16:39;99825.94;;;2.65;100.00
27334;BME280;14817;57.104;-2.094;2024-02-26T04:19:06;99836.50;;;2.65;100.00
27334;BME280;14817;57.104;-2.094;2024-02-26T04:21:34;99833.13;;;2.63;100.00
27334;BME280;14817;57.104;-2.094;2024-02-26T04:24:01;99839.41;;;2.74;100.00
27334;BME280;14817;57.104;-2.094;2024-02-26T04:26:30;99846.72;;;2.81;100.00
27334;BME280;14817;57.104;-2.094;2024-02-26T04:28:57;99862.00;;;2.78;100.00
27334;BME280;14817;57.104;-2.094;2024-02-26T04:31:24;99859.72;;;2.96;100.00
27334;BME280;14817;57.104;-2.094;2024-02-26T04:33:52;99874.00;;;3.04;100.00
27334;BME280;14817;57.104;-2.094;2024-02-26T04:36:19;99882.19;;;3.13;100.00
27334;BME280;14817;57.104;-2.094;2024-02-26T04:38:47;99877.53;;;3.16;100.00
27334;BME280;14817;57.104;-2.094;2024-02-26T04:41:13;99883.28;;;3.21;100.00
27334;BME280;14817;57.104;-2.094;2024-02-26T04:43:40;99886.41;;;3.26;100.00
27334;BME280;14817;57.104;-2.094;2024-02-26T04:46:10;99890.59;;;3.18;100.00
27334;BME280;14817;57.104;-2.094;2024-02-26T04:48:37;99898.31;;;3.21;100.00
27334;BME280;14817;57.104;-2.094;2024-02-26T04:51:05;99900.13;;;3.20;100.00
27334;BME280;14817;57.104;-2.094;2024-02-26T04:53:32;99900.34;;;3.17;100.00
27334;BME280;14817;57.104;-2.094;2024-02-26T04:55:59;99902.06;;;3.18;100.00
27334;BME280;14817;57.104;-2.094;2024-02-26T04:58:26;99908.91;;;3.10;100.00
27334;BME280;14817;57.104;-2.094;2024-02-26T05:00:53;99913.69;;;3.16;100.00
27334;BME280;14817;57.104;-2.094;2024-02-26T05:03:20;99914.94;;;3.12;100.00
27334;BME280;14817;57.104;-2.094;2024-02-26T05:05:47;99918.88;;;3.06;100.00
27334;BME280;14817;57.104;-2.094;2024-02-26T05:08:14;99915.25;;;3.07;100.00
27334;BME280;14817;57.104;-2.094;2024-02-26T05:10:42;99925.47;;;3.00;100.00
27334;BME280;14817;57.104;-2.094;2024-02-26T05:13:10;99925.00;;;3.06;100.00
27334;BME280;14817;57.104;-2.094;2024-02-26T05:15:36;99933.03;;;3.05;100.00
27334;BME280;14817;57.104;-2.094;2024-02-26T05:18:04;99925.47;;;3.00;100.00
27334;BME280;14817;57.104;-2.094;2024-02-26T05:20:31;99936.53;;;2.94;100.00
27334;BME280;14817;57.104;-2.094;2024-02-26T05:23:02;99946.16;;;2.95;100.00
27334;BME280;14817;57.104;-2.094;2024-02-26T05:25:30;99947.97;;;2.95;100.00
27334;BME280;14817;57.104;-2.094;2024-02-26T05:27:57;99952.28;;;2.96;100.00
27334;BME280;14817;57.104;-2.094;2024-02-26T05:30:24;99955.53;;;2.99;100.00
27334;BME280;14817;57.104;-2.094;2024-02-26T05:32:53;99969.25;;;3.04;100.00
27334;BME280;14817;57.104;-2.094;2024-02-26T05:35:20;99966.00;;;3.01;100.00
27334;BME280;14817;57.104;-2.094;2024-02-26T05:37:47;99968.06;;;3.09;100.00
27334;BME280;14817;57.104;-2.094;2024-02-26T05:40:14;99985.28;;;3.14;100.00
27334;BME280;14817;57.104;-2.094;2024-02-26T05:42:41;99980.09;;;3.13;100.00
27334;BME280;14817;57.104;-2.094;2024-02-26T05:45:08;99998.59;;;3.13;100.00
27334;BME280;14817;57.104;-2.094;2024-02-26T05:47:35;99994.75;;;3.17;100.00
27334;BME280;14817;57.104;-2.094;2024-02-26T05:50:02;99998.34;;;3.16;100.00
27334;BME280;14817;57.104;-2.094;2024-02-26T05:52:29;100006.44;;;3.14;100.00
27334;BME280;14817;57.104;-2.094;2024-02-26T05:54:56;100022.06;;;3.17;100.00
27334;BME280;14817;57.104;-2.094;2024-02-26T05:57:23;100020.38;;;3.16;100.00
27334;BME280;14817;57.104;-2.094;2024-02-26T05:59:50;100014.38;;;3.14;100.00
27334;BME280;14817;57.104;-2.094;2024-02-26T06:02:17;100012.31;;;3.18;100.00
27334;BME280;14817;57.104;-2.094;2024-02-26T06:04:44;100023.59;;;3.09;100.00
27334;BME280;14817;57.104;-2.094;2024-02-26T06:07:13;100021.94;;;3.08;100.00
27334;BME280;14817;57.104;-2.094;2024-02-26T06:09:40;100028.88;;;2.97;100.00
27334;BME280;14817;57.104;-2.094;2024-02-26T06:12:06;100033.66;;;2.92;100.00
27334;BME280;14817;57.104;-2.094;2024-02-26T06:14:33;100039.09;;;2.91;100.00
27334;BME280;14817;57.104;-2.094;2024-02-26T06:17:00;100037.72;;;2.85;100.00
27334;BME280;14817;57.104;-2.094;2024-02-26T06:19:27;100044.19;;;2.81;100.00
27334;BME280;14817;57.104;-2.094;2024-02-26T06:21:54;100051.31;;;2.92;100.00
27334;BME280;14817;57.104;-2.094;2024-02-26T06:24:21;100052.41;;;2.89;100.00
27334;BME280;14817;57.104;-2.094;2024-02-26T06:26:49;100050.59;;;2.90;100.00
27334;BME280;14817;57.104;-2.094;2024-02-26T06:29:16;100055.41;;;2.84;100.00
27334;BME280;14817;57.104;-2.094;2024-02-26T06:31:42;100060.91;;;2.81;100.00
27334;BME280;14817;57.104;-2.094;2024-02-26T06:34:10;100068.00;;;2.81;100.00
27334;BME280;14817;57.104;-2.094;2024-02-26T06:36:38;100067.50;;;2.76;100.00
27334;BME280;14817;57.104;-2.094;2024-02-26T06:39:05;100080.94;;;2.73;100.00
27334;BME280;14817;57.104;-2.094;2024-02-26T06:41:32;100078.44;;;2.71;100.00
27334;BME280;14817;57.104;-2.094;2024-02-26T06:43:59;100082.84;;;2.71;100.00
27334;BME280;14817;57.104;-2.094;2024-02-26T06:46:26;100081.38;;;2.66;100.00
27334;BME280;14817;57.104;-2.094;2024-02-26T06:48:53;100094.09;;;2.61;100.00
27334;BME280;14817;57.104;-2.094;2024-02-26T06:51:22;100095.91;;;2.61;100.00
27334;BME280;14817;57.104;-2.094;2024-02-26T06:53:49;100100.47;;;2.59;100.00
27334;BME280;14817;57.104;-2.094;2024-02-26T06:56:16;100105.53;;;2.62;100.00
27334;BME280;14817;57.104;-2.094;2024-02-26T06:58:44;100109.25;;;2.59;100.00
27334;BME280;14817;57.104;-2.094;2024-02-26T07:01:12;100113.06;;;2.55;100.00
27334;BME280;14817;57.104;-2.094;2024-02-26T07:03:42;100117.84;;;2.50;100.00
27334;BME280;14817;57.104;-2.094;2024-02-26T07:06:09;100121.56;;;2.48;100.00
27334;BME280;14817;57.104;-2.094;2024-02-26T07:08:36;100124.06;;;2.49;100.00
27334;BME280;14817;57.104;-2.094;2024-02-26T07:11:03;100124.19;;;2.48;100.00
27334;BME280;14817;57.104;-2.094;2024-02-26T07:13:34;100121.84;;;2.43;100.00
27334;BME280;14817;57.104;-2.094;2024-02-26T07:16:01;100128.84;;;2.44;100.00
27334;BME280;14817;57.104;-2.094;2024-02-26T07:18:28;100133.91;;;2.47;100.00
27334;BME280;14817;57.104;-2.094;2024-02-26T07:20:55;100138.13;;;2.50;100.00
27334;BME280;14817;57.104;-2.094;2024-02-26T07:23:22;100143.41;;;2.50;100.00
27334;BME280;14817;57.104;-2.094;2024-02-26T07:25:49;100145.75;;;2.54;100.00
27334;BME280;14817;57.104;-2.094;2024-02-26T07:28:19;100147.22;;;2.58;100.00
27334;BME280;14817;57.104;-2.094;2024-02-26T07:30:46;100157.78;;;2.58;100.00
27334;BME280;14817;57.104;-2.094;2024-02-26T07:33:13;100163.34;;;2.66;100.00
27334;BME280;14817;57.104;-2.094;2024-02-26T07:35:41;100158.19;;;2.65;100.00
27334;BME280;14817;57.104;-2.094;2024-02-26T07:38:08;100168.63;;;2.66;100.00
27334;BME280;14817;57.104;-2.094;2024-02-26T07:40:48;100168.19;;;2.73;100.00
27334;BME280;14817;57.104;-2.094;2024-02-26T07:43:28;100159.72;;;2.80;100.00
27334;BME280;14817;57.104;-2.094;2024-02-26T07:45:55;100167.78;;;3.38;100.00
27334;BME280;14817;57.104;-2.094;2024-02-26T07:48:22;100166.03;;;4.08;100.00
27334;BME280;14817;57.104;-2.094;2024-02-26T07:50:49;100180.97;;;4.32;100.00
27334;BME280;14817;57.104;-2.094;2024-02-26T07:53:16;100191.47;;;3.75;100.00
27334;BME280;14817;57.104;-2.094;2024-02-26T07:55:42;100187.13;;;3.63;100.00
27334;BME280;14817;57.104;-2.094;2024-02-26T07:58:09;100186.88;;;3.66;100.00
27334;BME280;14817;57.104;-2.094;2024-02-26T08:00:36;100175.75;;;4.07;100.00
27334;BME280;14817;57.104;-2.094;2024-02-26T08:03:04;100191.28;;;4.01;100.00
27334;BME280;14817;57.104;-2.094;2024-02-26T08:05:31;100197.31;;;4.70;100.00
27334;BME280;14817;57.104;-2.094;2024-02-26T08:07:58;100219.81;;;4.99;100.00
27334;BME280;14817;57.104;-2.094;2024-02-26T08:10:24;100244.63;;;5.52;100.00
27334;BME280;14817;57.104;-2.094;2024-02-26T08:12:51;100267.50;;;5.76;100.00
27334;BME280;14817;57.104;-2.094;2024-02-26T08:15:18;100299.38;;;5.76;100.00
27334;BME280;14817;57.104;-2.094;2024-02-26T08:17:48;100310.91;;;5.86;100.00
27334;BME280;14817;57.104;-2.094;2024-02-26T08:20:15;100328.56;;;6.20;100.00
27334;BME280;14817;57.104;-2.094;2024-02-26T08:22:41;100341.00;;;6.61;100.00
27334;BME280;14817;57.104;-2.094;2024-02-26T08:25:09;100384.75;;;6.68;100.00
27334;BME280;14817;57.104;-2.094;2024-02-26T08:27:36;100402.91;;;6.84;100.00
27334;BME280;14817;57.104;-2.094;2024-02-26T08:30:03;100424.31;;;6.83;100.00
27334;BME280;14817;57.104;-2.094;2024-02-26T08:32:30;100433.41;;;6.80;100.00
27334;BME280;14817;57.104;-2.094;2024-02-26T08:34:57;100446.91;;;7.09;100.00
27334;BME280;14817;57.104;-2.094;2024-02-26T08:37:24;100460.69;;;7.45;100.00
27334;BME280;14817;57.104;-2.094;2024-02-26T08:39:51;100470.44;;;7.66;100.00
27334;BME280;14817;57.104;-2.094;2024-02-26T08:42:18;100480.00;;;7.16;100.00
27334;BME280;14817;57.104;-2.094;2024-02-26T08:44:45;100500.75;;;7.65;100.00
27334;BME280;14817;57.104;-2.094;2024-02-26T08:47:12;100479.06;;;7.89;100.00
27334;BME280;14817;57.104;-2.094;2024-02-26T08:49:44;100497.47;;;8.02;100.00
27334;BME280;14817;57.104;-2.094;2024-02-26T08:52:11;100503.84;;;8.30;100.00
27334;BME280;14817;57.104;-2.094;2024-02-26T08:54:38;100523.91;;;8.05;100.00
27334;BME280;14817;57.104;-2.094;2024-02-26T08:57:05;100504.16;;;8.36;100.00
27334;BME280;14817;57.104;-2.094;2024-02-26T08:59:32;100516.19;;;8.11;100.00
27334;BME280;14817;57.104;-2.094;2024-02-26T09:01:59;100502.78;;;8.81;100.00
27334;BME280;14817;57.104;-2.094;2024-02-26T09:04:26;100502.09;;;8.59;100.00
27334;BME280;14817;57.104;-2.094;2024-02-26T09:06:54;100508.72;;;8.75;100.00
27334;BME280;14817;57.104;-2.094;2024-02-26T09:09:21;100509.63;;;9.13;100.00
27334;BME280;14817;57.104;-2.094;2024-02-26T09:11:49;100526.53;;;8.74;100.00
27334;BME280;14817;57.104;-2.094;2024-02-26T09:14:18;100534.41;;;8.95;100.00
27334;BME280;14817;57.104;-2.094;2024-02-26T09:16:45;100536.81;;;8.79;100.00
27334;BME280;14817;57.104;-2.094;2024-02-26T09:19:12;100551.03;;;8.20;100.00
27334;BME280;14817;57.104;-2.094;2024-02-26T09:21:43;100536.25;;;8.75;100.00
27334;BME280;14817;57.104;-2.094;2024-02-26T09:24:10;100565.00;;;8.43;100.00
27334;BME280;14817;57.104;-2.094;2024-02-26T09:26:38;100561.72;;;8.29;100.00
27334;BME280;14817;57.104;-2.094;2024-02-26T09:29:05;100534.28;;;8.87;100.00
27334;BME280;14817;57.104;-2.094;2024-02-26T09:31:32;100525.84;;;8.72;100.00
27334;BME280;14817;57.104;-2.094;2024-02-26T09:34:00;100537.63;;;8.50;100.00
27334;BME280;14817;57.104;-2.094;2024-02-26T09:36:29;100531.13;;;9.31;100.00
27334;BME280;14817;57.104;-2.094;2024-02-26T09:38:56;100554.38;;;9.01;100.00
27334;BME280;14817;57.104;-2.094;2024-02-26T09:41:28;100562.81;;;8.87;100.00
27334;BME280;14817;57.104;-2.094;2024-02-26T09:43:57;100562.59;;;8.39;100.00
27334;BME280;14817;57.104;-2.094;2024-02-26T09:46:25;100567.72;;;8.62;100.00
27334;BME280;14817;57.104;-2.094;2024-02-26T09:48:52;100576.84;;;8.69;100.00
27334;BME280;14817;57.104;-2.094;2024-02-26T09:51:22;100556.19;;;9.10;100.00
27334;BME280;14817;57.104;-2.094;2024-02-26T09:53:52;100588.41;;;8.79;100.00
27334;BME280;14817;57.104;-2.094;2024-02-26T09:56:21;100574.75;;;8.63;100.00
27334;BME280;14817;57.104;-2.094;2024-02-26T09:58:48;100586.50;;;8.10;100.00
27334;BME280;14817;57.104;-2.094;2024-02-26T10:01:20;100596.28;;;8.31;100.00
27334;BME280;14817;57.104;-2.094;2024-02-26T10:03:54;100599.66;;;8.33;100.00
27334;BME280;14817;57.104;-2.094;2024-02-26T10:06:22;100604.28;;;8.91;100.00
27334;BME280;14817;57.104;-2.094;2024-02-26T10:08:49;100622.00;;;8.92;100.00
27334;BME280;14817;57.104;-2.094;2024-02-26T10:11:16;100614.09;;;8.81;100.00
27334;BME280;14817;57.104;-2.094;2024-02-26T10:13:43;100607.91;;;8.70;100.00
27334;BME280;14817;57.104;-2.094;2024-02-26T10:16:10;100627.34;;;8.92;100.00
27334;BME280;14817;57.104;-2.094;2024-02-26T10:18:51;100637.88;;;8.93;100.00
27334;BME280;14817;57.104;-2.094;2024-02-26T10:21:26;100645.59;;;8.77;100.00
27334;BME280;14817;57.104;-2.094;2024-02-26T10:23:53;100633.25;;;8.86;100.00
27334;BME280;14817;57.104;-2.094;2024-02-26T10:26:21;100632.81;;;8.40;100.00
27334;BME280;14817;57.104;-2.094;2024-02-26T10:28:49;100620.16;;;8.83;100.00
27334;BME280;14817;57.104;-2.094;2024-02-26T10:31:21;100624.38;;;8.95;100.00
27334;BME280;14817;57.104;-2.094;2024-02-26T10:33:48;100628.25;;;8.52;100.00
27334;BME280;14817;57.104;-2.094;2024-02-26T10:36:16;100646.75;;;9.23;100.00
27334;BME280;14817;57.104;-2.094;2024-02-26T10:38:43;100644.47;;;8.79;100.00
27334;BME280;14817;57.104;-2.094;2024-02-26T10:41:13;100654.06;;;8.42;100.00
27334;BME280;14817;57.104;-2.094;2024-02-26T10:43:42;100630.75;;;8.44;100.00
27334;BME280;14817;57.104;-2.094;2024-02-26T10:46:10;100645.19;;;8.10;100.00
27334;BME280;14817;57.104;-2.094;2024-02-26T10:48:38;100628.44;;;7.98;100.00
27334;BME280;14817;57.104;-2.094;2024-02-26T10:51:09;100628.72;;;7.74;100.00
27334;BME280;14817;57.104;-2.094;2024-02-26T10:53:38;100648.81;;;8.30;100.00
27334;BME280;14817;57.104;-2.094;2024-02-26T10:56:06;100635.34;;;7.80;100.00
27334;BME280;14817;57.104;-2.094;2024-02-26T10:58:35;100634.56;;;8.51;100.00
27334;BME280;14817;57.104;-2.094;2024-02-26T11:01:03;100654.69;;;8.65;100.00
27334;BME280;14817;57.104;-2.094;2024-02-26T11:03:31;100650.69;;;8.09;100.00
27334;BME280;14817;57.104;-2.094;2024-02-26T11:06:03;100649.25;;;8.05;100.00
27334;BME280;14817;57.104;-2.094;2024-02-26T11:08:31;100634.69;;;8.09;100.00
27334;BME280;14817;57.104;-2.094;2024-02-26T11:10:59;100646.63;;;8.14;100.00
27334;BME280;14817;57.104;-2.094;2024-02-26T11:13:28;100653.59;;;8.06;100.00
27334;BME280;14817;57.104;-2.094;2024-02-26T11:16:01;100640.88;;;8.19;100.00
27334;BME280;14817;57.104;-2.094;2024-02-26T11:18:29;100651.22;;;8.03;100.00
27334;BME280;14817;57.104;-2.094;2024-02-26T11:20:59;100636.44;;;7.98;100.00
27334;BME280;14817;57.104;-2.094;2024-02-26T11:23:26;100635.38;;;8.42;100.00
27334;BME280;14817;57.104;-2.094;2024-02-26T11:25:56;100627.09;;;8.14;100.00
27334;BME280;14817;57.104;-2.094;2024-02-26T11:28:25;100639.34;;;7.65;100.00
27334;BME280;14817;57.104;-2.094;2024-02-26T11:30:54;100650.19;;;7.73;100.00
27334;BME280;14817;57.104;-2.094;2024-02-26T11:33:22;100668.44;;;7.56;100.00
27334;BME280;14817;57.104;-2.094;2024-02-26T11:35:49;100645.81;;;7.51;100.00
27334;BME280;14817;57.104;-2.094;2024-02-26T11:38:24;100650.25;;;7.62;100.00
27334;BME280;14817;57.104;-2.094;2024-02-26T11:40:53;100670.09;;;7.69;100.00
27334;BME280;14817;57.104;-2.094;2024-02-26T11:43:57;100676.91;;;7.62;100.00
27334;BME280;14817;57.104;-2.094;2024-02-26T11:46:38;100665.78;;;7.77;100.00
27334;BME280;14817;57.104;-2.094;2024-02-26T11:51:56;100676.91;;;7.83;100.00
27334;BME280;14817;57.104;-2.094;2024-02-26T11:54:44;100680.47;;;7.72;100.00
27334;BME280;14817;57.104;-2.094;2024-02-26T11:57:21;100667.41;;;7.90;100.00
27334;BME280;14817;57.104;-2.094;2024-02-26T11:59:49;100670.53;;;7.95;100.00
27334;BME280;14817;57.104;-2.094;2024-02-26T12:02:55;100689.00;;;8.38;100.00
27334;BME280;14817;57.104;-2.094;2024-02-26T12:05:25;100708.28;;;8.21;100.00
27334;BME280;14817;57.104;-2.094;2024-02-26T12:08:03;100689.97;;;8.07;100.00
27334;BME280;14817;57.104;-2.094;2024-02-26T12:10:38;100692.69;;;7.95;100.00
27334;BME280;14817;57.104;-2.094;2024-02-26T12:13:15;100679.31;;;8.07;100.00
27334;BME280;14817;57.104;-2.094;2024-02-26T12:15:56;100672.97;;;8.08;100.00
27334;BME280;14817;57.104;-2.094;2024-02-26T12:18:24;100697.72;;;7.68;100.00
27334;BME280;14817;57.104;-2.094;2024-02-26T12:21:01;100710.44;;;8.06;100.00
27334;BME280;14817;57.104;-2.094;2024-02-26T12:23:30;100725.50;;;8.38;100.00
27334;BME280;14817;57.104;-2.094;2024-02-26T12:26:00;100749.81;;;8.14;100.00
27334;BME280;14817;57.104;-2.094;2024-02-26T12:28:29;100750.28;;;7.98;100.00
27334;BME280;14817;57.104;-2.094;2024-02-26T12:30:56;100752.22;;;7.75;100.00
27334;BME280;14817;57.104;-2.094;2024-02-26T12:33:26;100743.75;;;7.91;100.00
27334;BME280;14817;57.104;-2.094;2024-02-26T12:35:55;100733.66;;;8.36;100.00
27334;BME280;14817;57.104;-2.094;2024-02-26T12:38:22;100741.59;;;8.48;100.00
27334;BME280;14817;57.104;-2.094;2024-02-26T12:40:48;100733.25;;;8.62;100.00
27334;BME280;14817;57.104;-2.094;2024-02-26T12:43:16;100757.34;;;8.51;100.00
27334;BME280;14817;57.104;-2.094;2024-02-26T12:45:43;100799.38;;;7.95;100.00
27334;BME280;14817;57.104;-2.094;2024-02-26T12:48:14;100794.38;;;7.70;100.00
27334;BME280;14817;57.104;-2.094;2024-02-26T12:50:45;100792.88;;;7.88;100.00
27334;BME280;14817;57.104;-2.094;2024-02-26T12:53:14;100781.75;;;8.04;100.00